sensor_id;sensor_type;location;lat;lon;timestamp;temperature;humidity
82788;DHT22;72529;51.786;4.662;2024-01-10T00:00:11;-1.50;54.44
82788;DHT22;72529;51.786;4.662;2024-01-10T00:02:36;-1.46;53.89
82788;DHT22;72529;51.786;4.662;2024-01-10T00:05:02;-1.54;53.49
82788;DHT22;72529;51.786;4.662;2024-01-10T00:07:29;-1.57;54.49
82788;DHT22;72529;51.786;4.662;2024-01-10T00:09:54;-1.73;53.70
82788;DHT22;72529;51.786;4.662;2024-01-10T00:12:21;-1.74;54.88
82788;DHT22;72529;51.786;4.662;2024-01-10T00:14:46;-1.63;55.16
82788;DHT22;72529;51.786;4.662;2024-01-10T00:17:12;-1.64;55.03
82788;DHT22;72529;51.786;4.662;2024-01-10T00:19:37;-1.54;55.13
82788;DHT22;72529;51.786;4.662;2024-01-10T00:22:03;-1.63;55.03
82788;DHT22;72529;51.786;4.662;2024-01-10T00:24:28;-1.62;55.94
82788;DHT22;72529;51.786;4.662;2024-01-10T00:26:54;-1.56;55.22
82788;DHT22;72529;51.786;4.662;2024-01-10T00:29:20;-1.53;55.17
82788;DHT22;72529;51.786;4.662;2024-01-10T00:31:46;-1.66;54.81
82788;DHT22;72529;51.786;4.662;2024-01-10T00:34:11;-1.60;55.20
82788;DHT22;72529;51.786;4.662;2024-01-10T00:36:37;-1.62;55.26
82788;DHT22;72529;51.786;4.662;2024-01-10T00:39:03;-1.50;55.61
82788;DHT22;72529;51.786;4.662;2024-01-10T00:41:29;-1.53;54.79
82788;DHT22;72529;51.786;4.662;2024-01-10T00:43:54;-1.53;55.70
82788;DHT22;72529;51.786;4.662;2024-01-10T00:46:20;-1.49;56.09
82788;DHT22;72529;51.786;4.662;2024-01-10T00:48:45;-1.49;55.60
82788;DHT22;72529;51.786;4.662;2024-01-10T00:51:11;-1.59;55.93
82788;DHT22;72529;51.786;4.662;2024-01-10T00:53:37;-1.62;56.05
82788;DHT22;72529;51.786;4.662;2024-01-10T00:56:05;-1.60;56.13
82788;DHT22;72529;51.786;4.662;2024-01-10T00:58:30;-1.67;56.23
82788;DHT22;72529;51.786;4.662;2024-01-10T01:00:55;-1.68;56.54
82788;DHT22;72529;51.786;4.662;2024-01-10T01:03:21;-1.64;57.09
82788;DHT22;72529;51.786;4.662;2024-01-10T01:05:46;-1.75;56.14
82788;DHT22;72529;51.786;4.662;2024-01-10T01:08:12;-1.73;56.77
82788;DHT22;72529;51.786;4.662;2024-01-10T01:10:37;-1.73;57.59
82788;DHT22;72529;51.786;4.662;2024-01-10T01:13:03;-1.74;56.86
82788;DHT22;72529;51.786;4.662;2024-01-10T01:15:28;-1.81;57.24
82788;DHT22;72529;51.786;4.662;2024-01-10T01:17:53;-1.77;57.69
82788;DHT22;72529;51.786;4.662;2024-01-10T01:20:19;-1.87;57.19
82788;DHT22;72529;51.786;4.662;2024-01-10T01:22:44;-1.90;57.86
82788;DHT22;72529;51.786;4.662;2024-01-10T01:25:10;-1.90;57.47
82788;DHT22;72529;51.786;4.662;2024-01-10T01:27:35;-1.73;57.90
82788;DHT22;72529;51.786;4.662;2024-01-10T01:30:01;-1.75;57.60
82788;DHT22;72529;51.786;4.662;2024-01-10T01:32:26;-1.78;57.66
82788;DHT22;72529;51.786;4.662;2024-01-10T01:34:51;-1.87;58.23
82788;DHT22;72529;51.786;4.662;2024-01-10T01:37:17;-1.83;58.29
82788;DHT22;72529;51.786;4.662;2024-01-10T01:39:42;-1.84;58.43
82788;DHT22;72529;51.786;4.662;2024-01-10T01:42:07;-1.87;58.46
82788;DHT22;72529;51.786;4.662;2024-01-10T01:44:34;-1.83;58.34
82788;DHT22;72529;51.786;4.662;2024-01-10T01:46:59;-1.88;58.74
82788;DHT22;72529;51.786;4.662;2024-01-10T01:49:26;-1.95;58.70
82788;DHT22;72529;51.786;4.662;2024-01-10T01:51:52;-2.02;58.31
82788;DHT22;72529;51.786;4.662;2024-01-10T01:54:18;-1.97;58.81
82788;DHT22;72529;51.786;4.662;2024-01-10T01:56:45;-1.81;58.70
82788;DHT22;72529;51.786;4.662;2024-01-10T01:59:12;-1.83;58.59
82788;DHT22;72529;51.786;4.662;2024-01-10T02:01:38;-1.83;58.87
82788;DHT22;72529;51.786;4.662;2024-01-10T02:04:04;-1.73;59.17
82788;DHT22;72529;51.786;4.662;2024-01-10T02:06:29;-1.80;58.93
82788;DHT22;72529;51.786;4.662;2024-01-10T02:08:56;-1.94;58.59
82788;DHT22;72529;51.786;4.662;2024-01-10T02:11:24;-1.97;58.50
82788;DHT22;72529;51.786;4.662;2024-01-10T02:13:49;-1.99;59.18
82788;DHT22;72529;51.786;4.662;2024-01-10T02:16:15;-2.02;59.65
82788;DHT22;72529;51.786;4.662;2024-01-10T02:18:40;-1.93;59.21
82788;DHT22;72529;51.786;4.662;2024-01-10T02:21:06;-1.97;59.30
82788;DHT22;72529;51.786;4.662;2024-01-10T02:23:31;-2.01;60.16
82788;DHT22;72529;51.786;4.662;2024-01-10T02:25:57;-2.07;59.56
82788;DHT22;72529;51.786;4.662;2024-01-10T02:28:22;-2.07;59.96
82788;DHT22;72529;51.786;4.662;2024-01-10T02:30:52;-2.12;60.48
82788;DHT22;72529;51.786;4.662;2024-01-10T02:33:19;-2.08;60.69
82788;DHT22;72529;51.786;4.662;2024-01-10T02:35:44;-2.08;60.65
82788;DHT22;72529;51.786;4.662;2024-01-10T02:38:10;-2.08;60.27
82788;DHT22;72529;51.786;4.662;2024-01-10T02:40:35;-1.97;60.95
82788;DHT22;72529;51.786;4.662;2024-01-10T02:43:00;-1.94;60.35
82788;DHT22;72529;51.786;4.662;2024-01-10T02:45:26;-2.02;60.83
82788;DHT22;72529;51.786;4.662;2024-01-10T02:47:51;-1.97;60.67
82788;DHT22;72529;51.786;4.662;2024-01-10T02:50:17;-2.11;60.67
82788;DHT22;72529;51.786;4.662;2024-01-10T02:52:42;-2.12;60.42
82788;DHT22;72529;51.786;4.662;2024-01-10T02:55:08;-2.18;61.05
82788;DHT22;72529;51.786;4.662;2024-01-10T02:57:33;-2.15;61.37
82788;DHT22;72529;51.786;4.662;2024-01-10T02:59:59;-2.07;61.00
82788;DHT22;72529;51.786;4.662;2024-01-10T03:02:24;-2.09;61.36
82788;DHT22;72529;51.786;4.662;2024-01-10T03:04:50;-2.04;61.14
82788;DHT22;72529;51.786;4.662;2024-01-10T03:07:15;-2.08;61.26
82788;DHT22;72529;51.786;4.662;2024-01-10T03:09:41;-2.04;61.38
82788;DHT22;72529;51.786;4.662;2024-01-10T03:12:06;-2.02;61.11
82788;DHT22;72529;51.786;4.662;2024-01-10T03:14:33;-2.11;61.00
82788;DHT22;72529;51.786;4.662;2024-01-10T03:16:58;-2.11;61.49
82788;DHT22;72529;51.786;4.662;2024-01-10T03:19:24;-2.08;60.76
82788;DHT22;72529;51.786;4.662;2024-01-10T03:21:49;-2.18;61.10
82788;DHT22;72529;51.786;4.662;2024-01-10T03:24:14;-2.09;61.20
82788;DHT22;72529;51.786;4.662;2024-01-10T03:26:40;-2.18;60.94
82788;DHT22;72529;51.786;4.662;2024-01-10T03:29:05;-2.08;61.52
82788;DHT22;72529;51.786;4.662;2024-01-10T03:31:31;-2.09;61.62
82788;DHT22;72529;51.786;4.662;2024-01-10T03:33:57;-2.07;61.26
82788;DHT22;72529;51.786;4.662;2024-01-10T03:36:25;-2.14;61.14
82788;DHT22;72529;51.786;4.662;2024-01-10T03:38:51;-2.14;61.09
82788;DHT22;72529;51.786;4.662;2024-01-10T03:41:18;-2.24;61.19
82788;DHT22;72529;51.786;4.662;2024-01-10T03:43:44;-2.21;61.51
82788;DHT22;72529;51.786;4.662;2024-01-10T03:46:10;-2.07;61.96
82788;DHT22;72529;51.786;4.662;2024-01-10T03:48:36;-2.19;61.22
82788;DHT22;72529;51.786;4.662;2024-01-10T03:51:13;-2.19;62.03
82788;DHT22;72529;51.786;4.662;2024-01-10T03:53:38;-2.12;61.95
82788;DHT22;72529;51.786;4.662;2024-01-10T03:56:05;-2.14;61.86
82788;DHT22;72529;51.786;4.662;2024-01-10T03:58:30;-2.15;61.92
82788;DHT22;72529;51.786;4.662;2024-01-10T04:00:56;-2.28;61.89
82788;DHT22;72529;51.786;4.662;2024-01-10T04:03:21;-2.17;61.83
82788;DHT22;72529;51.786;4.662;2024-01-10T04:05:46;-2.19;62.26
82788;DHT22;72529;51.786;4.662;2024-01-10T04:08:12;-2.29;62.34
82788;DHT22;72529;51.786;4.662;2024-01-10T04:10:37;-2.32;62.06
82788;DHT22;72529;51.786;4.662;2024-01-10T04:13:03;-2.29;62.20
82788;DHT22;72529;51.786;4.662;2024-01-10T04:15:28;-2.41;62.15
82788;DHT22;72529;51.786;4.662;2024-01-10T04:17:54;-2.44;62.92
82788;DHT22;72529;51.786;4.662;2024-01-10T04:20:19;-2.34;62.58
82788;DHT22;72529;51.786;4.662;2024-01-10T04:22:44;-2.37;62.78
82788;DHT22;72529;51.786;4.662;2024-01-10T04:25:11;-2.37;63.06
82788;DHT22;72529;51.786;4.662;2024-01-10T04:27:36;-2.24;63.30
82788;DHT22;72529;51.786;4.662;2024-01-10T04:30:02;-2.32;62.94
82788;DHT22;72529;51.786;4.662;2024-01-10T04:32:28;-2.28;62.97
82788;DHT22;72529;51.786;4.662;2024-01-10T04:34:53;-2.39;63.14
82788;DHT22;72529;51.786;4.662;2024-01-10T04:37:18;-2.32;63.37
82788;DHT22;72529;51.786;4.662;2024-01-10T04:39:44;-2.32;62.97
82788;DHT22;72529;51.786;4.662;2024-01-10T04:42:12;-2.39;63.41
82788;DHT22;72529;51.786;4.662;2024-01-10T04:44:38;-2.38;63.30
82788;DHT22;72529;51.786;4.662;2024-01-10T04:47:04;-2.31;63.18
82788;DHT22;72529;51.786;4.662;2024-01-10T04:49:29;-2.35;62.84
82788;DHT22;72529;51.786;4.662;2024-01-10T04:51:55;-2.45;63.20
82788;DHT22;72529;51.786;4.662;2024-01-10T04:54:20;-2.56;63.63
82788;DHT22;72529;51.786;4.662;2024-01-10T04:56:46;-2.45;63.91
82788;DHT22;72529;51.786;4.662;2024-01-10T04:59:11;-2.38;63.73
82788;DHT22;72529;51.786;4.662;2024-01-10T05:01:37;-2.45;63.43
82788;DHT22;72529;51.786;4.662;2024-01-10T05:04:03;-2.44;63.33
82788;DHT22;72529;51.786;4.662;2024-01-10T05:06:28;-2.39;63.81
82788;DHT22;72529;51.786;4.662;2024-01-10T05:08:54;-2.46;64.03
82788;DHT22;72529;51.786;4.662;2024-01-10T05:11:24;-2.52;64.40
82788;DHT22;72529;51.786;4.662;2024-01-10T05:13:51;-2.48;64.40
82788;DHT22;72529;51.786;4.662;2024-01-10T05:16:16;-2.46;64.33
82788;DHT22;72529;51.786;4.662;2024-01-10T05:18:42;-2.46;64.27
82788;DHT22;72529;51.786;4.662;2024-01-10T05:21:08;-2.50;64.32
82788;DHT22;72529;51.786;4.662;2024-01-10T05:23:33;-2.45;64.06
82788;DHT22;72529;51.786;4.662;2024-01-10T05:25:59;-2.49;64.42
82788;DHT22;72529;51.786;4.662;2024-01-10T05:28:24;-2.62;64.23
82788;DHT22;72529;51.786;4.662;2024-01-10T05:30:50;-2.59;64.68
82788;DHT22;72529;51.786;4.662;2024-01-10T05:33:15;-2.46;64.48
82788;DHT22;72529;51.786;4.662;2024-01-10T05:35:42;-2.48;64.87
82788;DHT22;72529;51.786;4.662;2024-01-10T05:38:07;-2.63;64.84
82788;DHT22;72529;51.786;4.662;2024-01-10T05:40:33;-2.65;64.94
82788;DHT22;72529;51.786;4.662;2024-01-10T05:42:59;-2.69;64.84
82788;DHT22;72529;51.786;4.662;2024-01-10T05:45:25;-2.63;65.11
82788;DHT22;72529;51.786;4.662;2024-01-10T05:47:51;-2.65;64.79
82788;DHT22;72529;51.786;4.662;2024-01-10T05:50:16;-2.53;64.93
82788;DHT22;72529;51.786;4.662;2024-01-10T05:52:42;-2.58;64.83
82788;DHT22;72529;51.786;4.662;2024-01-10T05:55:09;-2.63;64.76
82788;DHT22;72529;51.786;4.662;2024-01-10T05:57:38;-2.65;65.05
82788;DHT22;72529;51.786;4.662;2024-01-10T06:00:05;-2.63;65.12
82788;DHT22;72529;51.786;4.662;2024-01-10T06:02:38;-2.59;64.85
82788;DHT22;72529;51.786;4.662;2024-01-10T06:05:07;-2.56;64.66
82788;DHT22;72529;51.786;4.662;2024-01-10T06:07:32;-2.69;64.95
82788;DHT22;72529;51.786;4.662;2024-01-10T06:09:58;-2.66;65.15
82788;DHT22;72529;51.786;4.662;2024-01-10T06:12:23;-2.72;65.19
82788;DHT22;72529;51.786;4.662;2024-01-10T06:14:49;-2.59;65.12
82788;DHT22;72529;51.786;4.662;2024-01-10T06:17:15;-2.66;65.35
82788;DHT22;72529;51.786;4.662;2024-01-10T06:19:41;-2.63;65.34
82788;DHT22;72529;51.786;4.662;2024-01-10T06:22:06;-2.59;64.99
82788;DHT22;72529;51.786;4.662;2024-01-10T06:24:31;-2.69;64.99
82788;DHT22;72529;51.786;4.662;2024-01-10T06:26:57;-2.68;64.88
82788;DHT22;72529;51.786;4.662;2024-01-10T06:29:22;-2.65;65.28
82788;DHT22;72529;51.786;4.662;2024-01-10T06:31:47;-2.69;65.49
82788;DHT22;72529;51.786;4.662;2024-01-10T06:34:13;-2.66;65.38
82788;DHT22;72529;51.786;4.662;2024-01-10T06:36:38;-2.77;65.33
82788;DHT22;72529;51.786;4.662;2024-01-10T06:39:04;-2.70;65.54
82788;DHT22;72529;51.786;4.662;2024-01-10T06:41:29;-2.63;65.48
82788;DHT22;72529;51.786;4.662;2024-01-10T06:43:55;-2.59;65.04
82788;DHT22;72529;51.786;4.662;2024-01-10T06:46:21;-2.55;64.99
82788;DHT22;72529;51.786;4.662;2024-01-10T06:48:46;-2.56;64.75
82788;DHT22;72529;51.786;4.662;2024-01-10T06:51:13;-2.63;64.90
82788;DHT22;72529;51.786;4.662;2024-01-10T06:53:39;-2.66;64.74
82788;DHT22;72529;51.786;4.662;2024-01-10T06:56:06;-2.60;65.28
82788;DHT22;72529;51.786;4.662;2024-01-10T06:58:32;-2.63;65.01
82788;DHT22;72529;51.786;4.662;2024-01-10T07:00:58;-2.68;64.88
82788;DHT22;72529;51.786;4.662;2024-01-10T07:03:26;-2.77;65.12
82788;DHT22;72529;51.786;4.662;2024-01-10T07:05:51;-2.80;65.46
82788;DHT22;72529;51.786;4.662;2024-01-10T07:08:17;-2.76;65.65
82788;DHT22;72529;51.786;4.662;2024-01-10T07:10:42;-2.65;65.43
82788;DHT22;72529;51.786;4.662;2024-01-10T07:13:07;-2.72;65.41
82788;DHT22;72529;51.786;4.662;2024-01-10T07:15:33;-2.73;65.20
82788;DHT22;72529;51.786;4.662;2024-01-10T07:17:59;-2.77;65.42
82788;DHT22;72529;51.786;4.662;2024-01-10T07:20:25;-2.77;65.56
82788;DHT22;72529;51.786;4.662;2024-01-10T07:22:50;-2.82;65.33
82788;DHT22;72529;51.786;4.662;2024-01-10T07:25:17;-2.77;65.46
82788;DHT22;72529;51.786;4.662;2024-01-10T07:27:45;-2.65;65.35
82788;DHT22;72529;51.786;4.662;2024-01-10T07:30:11;-2.65;65.29
82788;DHT22;72529;51.786;4.662;2024-01-10T07:32:40;-2.69;65.23
82788;DHT22;72529;51.786;4.662;2024-01-10T07:35:07;-2.66;65.07
82788;DHT22;72529;51.786;4.662;2024-01-10T07:37:38;-2.69;65.22
82788;DHT22;72529;51.786;4.662;2024-01-10T07:40:04;-2.65;65.06
82788;DHT22;72529;51.786;4.662;2024-01-10T07:42:32;-2.68;64.93
82788;DHT22;72529;51.786;4.662;2024-01-10T07:44:57;-2.68;65.26
82788;DHT22;72529;51.786;4.662;2024-01-10T07:47:23;-2.70;64.98
82788;DHT22;72529;51.786;4.662;2024-01-10T07:49:48;-2.75;64.90
82788;DHT22;72529;51.786;4.662;2024-01-10T07:52:14;-2.73;65.22
82788;DHT22;72529;51.786;4.662;2024-01-10T07:54:41;-2.68;65.38
82788;DHT22;72529;51.786;4.662;2024-01-10T07:57:07;-2.65;64.91
82788;DHT22;72529;51.786;4.662;2024-01-10T07:59:32;-2.63;64.80
82788;DHT22;72529;51.786;4.662;2024-01-10T08:02:00;-2.68;64.88
82788;DHT22;72529;51.786;4.662;2024-01-10T08:04:26;-2.76;64.64
82788;DHT22;72529;51.786;4.662;2024-01-10T08:06:52;-2.80;65.07
82788;DHT22;72529;51.786;4.662;2024-01-10T08:09:18;-2.82;65.22
82788;DHT22;72529;51.786;4.662;2024-01-10T08:11:46;-2.89;65.42
82788;DHT22;72529;51.786;4.662;2024-01-10T08:14:13;-2.82;65.55
82788;DHT22;72529;51.786;4.662;2024-01-10T08:16:39;-2.75;65.30
82788;DHT22;72529;51.786;4.662;2024-01-10T08:19:04;-2.80;65.46
82788;DHT22;72529;51.786;4.662;2024-01-10T08:21:30;-2.75;64.96
82788;DHT22;72529;51.786;4.662;2024-01-10T08:23:55;-2.79;65.02
82788;DHT22;72529;51.786;4.662;2024-01-10T08:26:21;-2.77;65.46
82788;DHT22;72529;51.786;4.662;2024-01-10T08:28:46;-2.73;65.31
82788;DHT22;72529;51.786;4.662;2024-01-10T08:31:12;-2.79;65.00
82788;DHT22;72529;51.786;4.662;2024-01-10T08:33:41;-2.79;64.73
82788;DHT22;72529;51.786;4.662;2024-01-10T08:36:06;-2.75;65.11
82788;DHT22;72529;51.786;4.662;2024-01-10T08:38:32;-2.72;64.85
82788;DHT22;72529;51.786;4.662;2024-01-10T08:40:57;-2.69;64.90
82788;DHT22;72529;51.786;4.662;2024-01-10T08:43:23;-2.60;65.02
82788;DHT22;72529;51.786;4.662;2024-01-10T08:45:48;-2.49;64.81
82788;DHT22;72529;51.786;4.662;2024-01-10T08:48:14;-2.35;63.75
82788;DHT22;72529;51.786;4.662;2024-01-10T08:50:39;-2.46;63.82
82788;DHT22;72529;51.786;4.662;2024-01-10T08:53:05;-2.52;64.40
82788;DHT22;72529;51.786;4.662;2024-01-10T08:55:33;-2.56;64.55
82788;DHT22;72529;51.786;4.662;2024-01-10T08:57:59;-2.34;64.42
82788;DHT22;72529;51.786;4.662;2024-01-10T09:00:24;-2.32;64.27
82788;DHT22;72529;51.786;4.662;2024-01-10T09:02:50;-2.41;64.14
82788;DHT22;72529;51.786;4.662;2024-01-10T09:05:16;-2.38;64.72
82788;DHT22;72529;51.786;4.662;2024-01-10T09:07:41;-2.37;64.39
82788;DHT22;72529;51.786;4.662;2024-01-10T09:10:08;-2.38;63.98
82788;DHT22;72529;51.786;4.662;2024-01-10T09:12:34;-2.39;64.35
82788;DHT22;72529;51.786;4.662;2024-01-10T09:15:00;-2.07;63.40
82788;DHT22;72529;51.786;4.662;2024-01-10T09:17:26;-2.17;62.98
82788;DHT22;72529;51.786;4.662;2024-01-10T09:19:53;-2.14;63.49
82788;DHT22;72529;51.786;4.662;2024-01-10T09:22:18;-2.08;63.30
82788;DHT22;72529;51.786;4.662;2024-01-10T09:24:44;-1.94;62.56
82788;DHT22;72529;51.786;4.662;2024-01-10T09:27:10;-1.83;62.24
82788;DHT22;72529;51.786;4.662;2024-01-10T09:29:35;-1.68;61.38
82788;DHT22;72529;51.786;4.662;2024-01-10T09:32:01;-1.77;61.83
82788;DHT22;72529;51.786;4.662;2024-01-10T09:34:26;-1.62;61.73
82788;DHT22;72529;51.786;4.662;2024-01-10T09:36:52;-1.67;61.24
82788;DHT22;72529;51.786;4.662;2024-01-10T09:39:18;-1.59;60.78
82788;DHT22;72529;51.786;4.662;2024-01-10T09:41:48;-1.47;61.29
82788;DHT22;72529;51.786;4.662;2024-01-10T09:44:15;-1.40;61.17
82788;DHT22;72529;51.786;4.662;2024-01-10T09:46:46;-1.43;60.47
82788;DHT22;72529;51.786;4.662;2024-01-10T09:49:13;-1.22;59.72
82788;DHT22;72529;51.786;4.662;2024-01-10T09:51:39;-1.23;60.04
82788;DHT22;72529;51.786;4.662;2024-01-10T09:54:05;-1.13;59.65
82788;DHT22;72529;51.786;4.662;2024-01-10T09:56:32;-1.15;59.69
82788;DHT22;72529;51.786;4.662;2024-01-10T09:59:01;-1.02;59.58
82788;DHT22;72529;51.786;4.662;2024-01-10T10:01:30;-0.89;59.46
82788;DHT22;72529;51.786;4.662;2024-01-10T10:03:56;-0.85;59.09
82788;DHT22;72529;51.786;4.662;2024-01-10T10:06:22;-0.78;59.30
82788;DHT22;72529;51.786;4.662;2024-01-10T10:08:48;-0.48;58.46
82788;DHT22;72529;51.786;4.662;2024-01-10T10:11:13;-0.58;57.64
82788;DHT22;72529;51.786;4.662;2024-01-10T10:13:41;-0.54;57.75
82788;DHT22;72529;51.786;4.662;2024-01-10T10:16:08;-0.45;57.87
82788;DHT22;72529;51.786;4.662;2024-01-10T10:18:35;-0.40;58.12
82788;DHT22;72529;51.786;4.662;2024-01-10T10:21:14;-0.26;57.56
82788;DHT22;72529;51.786;4.662;2024-01-10T10:23:57;-0.10;57.04
82788;DHT22;72529;51.786;4.662;2024-01-10T10:26:23;-0.06;56.48
82788;DHT22;72529;51.786;4.662;2024-01-10T10:28:50;0.06;57.13
82788;DHT22;72529;51.786;4.662;2024-01-10T10:31:17;0.21;55.36
82788;DHT22;72529;51.786;4.662;2024-01-10T10:33:43;0.15;55.19
82788;DHT22;72529;51.786;4.662;2024-01-10T10:36:09;0.18;55.32
82788;DHT22;72529;51.786;4.662;2024-01-10T10:38:36;0.22;55.13
82788;DHT22;72529;51.786;4.662;2024-01-10T10:41:07;0.31;54.57
82788;DHT22;72529;51.786;4.662;2024-01-10T10:43:37;0.40;55.16
82788;DHT22;72529;51.786;4.662;2024-01-10T10:46:09;0.62;54.30
82788;DHT22;72529;51.786;4.662;2024-01-10T10:48:38;0.58;54.58
82788;DHT22;72529;51.786;4.662;2024-01-10T10:51:10;0.61;53.47
82788;DHT22;72529;51.786;4.662;2024-01-10T10:53:37;0.78;53.35
82788;DHT22;72529;51.786;4.662;2024-01-10T10:56:05;0.82;54.20
82788;DHT22;72529;51.786;4.662;2024-01-10T10:58:39;0.99;52.84
82788;DHT22;72529;51.786;4.662;2024-01-10T11:01:05;1.03;53.20
82788;DHT22;72529;51.786;4.662;2024-01-10T11:03:37;1.12;53.25
82788;DHT22;72529;51.786;4.662;2024-01-10T11:06:04;1.16;53.85
82788;DHT22;72529;51.786;4.662;2024-01-10T11:08:35;1.36;53.72
82788;DHT22;72529;51.786;4.662;2024-01-10T11:11:05;1.37;52.40
82788;DHT22;72529;51.786;4.662;2024-01-10T11:13:56;1.39;53.54
82788;DHT22;72529;51.786;4.662;2024-01-10T11:22:08;1.77;52.55
82788;DHT22;72529;51.786;4.662;2024-01-10T11:24:36;1.78;52.50
82788;DHT22;72529;51.786;4.662;2024-01-10T11:27:13;1.97;52.40
82788;DHT22;72529;51.786;4.662;2024-01-10T11:29:40;2.07;52.47
82788;DHT22;72529;51.786;4.662;2024-01-10T11:32:16;2.11;51.87
82788;DHT22;72529;51.786;4.662;2024-01-10T11:35:16;2.05;52.46
82788;DHT22;72529;51.786;4.662;2024-01-10T11:37:45;2.04;51.06
82788;DHT22;72529;51.786;4.662;2024-01-10T11:40:12;2.14;51.24
82788;DHT22;72529;51.786;4.662;2024-01-10T11:42:45;2.18;51.53
82788;DHT22;72529;51.786;4.662;2024-01-10T11:47:59;2.36;51.92
82788;DHT22;72529;51.786;4.662;2024-01-10T11:50:25;2.32;50.95
82788;DHT22;72529;51.786;4.662;2024-01-10T11:52:54;2.29;51.39
82788;DHT22;72529;51.786;4.662;2024-01-10T11:55:51;2.42;51.04
82788;DHT22;72529;51.786;4.662;2024-01-10T11:58:23;2.39;51.05
82788;DHT22;72529;51.786;4.662;2024-01-10T12:00:49;2.52;51.31
82788;DHT22;72529;51.786;4.662;2024-01-10T12:03:16;2.49;51.02
82788;DHT22;72529;51.786;4.662;2024-01-10T12:05:44;2.57;50.76
82788;DHT22;72529;51.786;4.662;2024-01-10T12:08:09;2.39;50.95
82788;DHT22;72529;51.786;4.662;2024-01-10T12:10:35;2.46;51.70
82788;DHT22;72529;51.786;4.662;2024-01-10T12:13:05;2.53;51.35
82788;DHT22;72529;51.786;4.662;2024-01-10T12:15:31;2.63;50.85
82788;DHT22;72529;51.786;4.662;2024-01-10T12:17:56;2.90;50.24
82788;DHT22;72529;51.786;4.662;2024-01-10T12:20:22;2.96;49.89
82788;DHT22;72529;51.786;4.662;2024-01-10T12:22:47;2.87;50.23
82788;DHT22;72529;51.786;4.662;2024-01-10T12:25:13;2.77;50.24
82788;DHT22;72529;51.786;4.662;2024-01-10T12:27:38;2.86;50.50
82788;DHT22;72529;51.786;4.662;2024-01-10T12:30:04;3.08;49.82
82788;DHT22;72529;51.786;4.662;2024-01-10T12:32:31;3.05;49.69
82788;DHT22;72529;51.786;4.662;2024-01-10T12:35:03;3.07;48.62
82788;DHT22;72529;51.786;4.662;2024-01-10T12:37:29;2.86;49.75
82788;DHT22;72529;51.786;4.662;2024-01-10T12:39:55;2.84;49.29
82788;DHT22;72529;51.786;4.662;2024-01-10T12:42:21;2.73;49.54
82788;DHT22;72529;51.786;4.662;2024-01-10T12:44:47;2.72;50.05
82788;DHT22;72529;51.786;4.662;2024-01-10T12:47:19;3.00;49.50
82788;DHT22;72529;51.786;4.662;2024-01-10T12:49:45;2.96;48.40
82788;DHT22;72529;51.786;4.662;2024-01-10T12:52:12;2.87;48.91
82788;DHT22;72529;51.786;4.662;2024-01-10T12:54:39;2.97;49.24
82788;DHT22;72529;51.786;4.662;2024-01-10T12:57:05;2.97;48.22
82788;DHT22;72529;51.786;4.662;2024-01-10T12:59:30;2.83;48.45
82788;DHT22;72529;51.786;4.662;2024-01-10T13:01:55;2.76;49.02
82788;DHT22;72529;51.786;4.662;2024-01-10T13:04:22;3.00;47.26
82788;DHT22;72529;51.786;4.662;2024-01-10T13:06:48;2.97;49.15
82788;DHT22;72529;51.786;4.662;2024-01-10T13:09:13;2.87;48.46
82788;DHT22;72529;51.786;4.662;2024-01-10T13:11:39;2.87;48.91
82788;DHT22;72529;51.786;4.662;2024-01-10T13:14:04;2.96;48.66
82788;DHT22;72529;51.786;4.662;2024-01-10T13:16:30;3.01;47.67
82788;DHT22;72529;51.786;4.662;2024-01-10T13:18:56;3.13;48.11
82788;DHT22;72529;51.786;4.662;2024-01-10T13:21:22;3.05;47.62
82788;DHT22;72529;51.786;4.662;2024-01-10T13:23:48;3.14;47.66
82788;DHT22;72529;51.786;4.662;2024-01-10T13:26:13;3.03;47.78
82788;DHT22;72529;51.786;4.662;2024-01-10T13:28:40;2.96;47.48
82788;DHT22;72529;51.786;4.662;2024-01-10T13:31:05;2.87;47.65
82788;DHT22;72529;51.786;4.662;2024-01-10T13:33:31;2.75;48.44
82788;DHT22;72529;51.786;4.662;2024-01-10T13:35:56;2.80;48.19
82788;DHT22;72529;51.786;4.662;2024-01-10T13:38:22;3.00;47.05
82788;DHT22;72529;51.786;4.662;2024-01-10T13:40:49;2.93;48.33
82788;DHT22;72529;51.786;4.662;2024-01-10T13:43:15;2.92;48.08
82788;DHT22;72529;51.786;4.662;2024-01-10T13:45:41;2.90;47.35
82788;DHT22;72529;51.786;4.662;2024-01-10T13:48:06;2.86;47.73
82788;DHT22;72529;51.786;4.662;2024-01-10T13:50:32;2.79;47.76
82788;DHT22;72529;51.786;4.662;2024-01-10T13:52:58;2.69;47.10
82788;DHT22;72529;51.786;4.662;2024-01-10T13:55:23;2.79;46.73
82788;DHT22;72529;51.786;4.662;2024-01-10T13:57:50;2.79;46.95
82788;DHT22;72529;51.786;4.662;2024-01-10T14:00:19;2.53;46.92
82788;DHT22;72529;51.786;4.662;2024-01-10T14:02:45;2.48;48.04
82788;DHT22;72529;51.786;4.662;2024-01-10T14:05:10;2.56;47.77
82788;DHT22;72529;51.786;4.662;2024-01-10T14:07:36;2.57;47.12
82788;DHT22;72529;51.786;4.662;2024-01-10T14:10:02;2.50;47.80
82788;DHT22;72529;51.786;4.662;2024-01-10T14:12:28;2.52;47.58
82788;DHT22;72529;51.786;4.662;2024-01-10T14:14:54;2.50;47.53
82788;DHT22;72529;51.786;4.662;2024-01-10T14:17:20;2.57;48.00
82788;DHT22;72529;51.786;4.662;2024-01-10T14:19:47;2.52;46.97
82788;DHT22;72529;51.786;4.662;2024-01-10T14:22:14;2.59;46.62
82788;DHT22;72529;51.786;4.662;2024-01-10T14:24:40;2.46;47.85
82788;DHT22;72529;51.786;4.662;2024-01-10T14:27:05;2.48;47.54
82788;DHT22;72529;51.786;4.662;2024-01-10T14:29:31;2.53;47.92
82788;DHT22;72529;51.786;4.662;2024-01-10T14:31:56;2.35;47.67
82788;DHT22;72529;51.786;4.662;2024-01-10T14:34:21;2.46;48.67
82788;DHT22;72529;51.786;4.662;2024-01-10T14:36:47;2.52;48.90
82788;DHT22;72529;51.786;4.662;2024-01-10T14:39:12;2.49;49.40
82788;DHT22;72529;51.786;4.662;2024-01-10T14:41:38;2.48;48.74
82788;DHT22;72529;51.786;4.662;2024-01-10T14:44:05;2.60;48.11
82788;DHT22;72529;51.786;4.662;2024-01-10T14:46:30;2.50;48.58
82788;DHT22;72529;51.786;4.662;2024-01-10T14:48:55;2.29;48.92
82788;DHT22;72529;51.786;4.662;2024-01-10T14:51:21;2.25;49.67
82788;DHT22;72529;51.786;4.662;2024-01-10T14:53:46;2.26;50.18
82788;DHT22;72529;51.786;4.662;2024-01-10T14:56:12;2.36;50.36
82788;DHT22;72529;51.786;4.662;2024-01-10T14:58:39;2.40;51.07
82788;DHT22;72529;51.786;4.662;2024-01-10T15:01:14;2.33;50.36
82788;DHT22;72529;51.786;4.662;2024-01-10T15:03:39;2.36;50.38
82788;DHT22;72529;51.786;4.662;2024-01-10T15:06:05;2.38;49.78
82788;DHT22;72529;51.786;4.662;2024-01-10T15:08:31;2.18;50.43
82788;DHT22;72529;51.786;4.662;2024-01-10T15:10:56;2.19;50.41
82788;DHT22;72529;51.786;4.662;2024-01-10T15:13:22;2.11;50.41
82788;DHT22;72529;51.786;4.662;2024-01-10T15:15:48;2.21;50.41
82788;DHT22;72529;51.786;4.662;2024-01-10T15:18:13;2.11;51.21
82788;DHT22;72529;51.786;4.662;2024-01-10T15:20:40;2.14;50.97
82788;DHT22;72529;51.786;4.662;2024-01-10T15:23:05;2.12;51.50
82788;DHT22;72529;51.786;4.662;2024-01-10T15:25:31;2.12;50.46
82788;DHT22;72529;51.786;4.662;2024-01-10T15:27:56;2.18;50.14
82788;DHT22;72529;51.786;4.662;2024-01-10T15:30:24;2.08;50.76
82788;DHT22;72529;51.786;4.662;2024-01-10T15:32:49;1.94;50.86
82788;DHT22;72529;51.786;4.662;2024-01-10T15:35:15;1.87;50.71
82788;DHT22;72529;51.786;4.662;2024-01-10T15:37:41;1.82;51.64